Terminal Aerodrome Forecast
Issued by NWS Lake Charles, LA

Home | Current Version | Previous Version | Text Only | Print | Product List | Glossary On
Versions: 1 2 3 4 5 6 7 8 9 10 11 12
000
FTUS44 KLCH 212320
TAFARA
TAF
KARA 212320Z 2200/2224 15008KT P6SM SCT025 OVC050
     FM220800 16008KT P6SM VCTS OVC015CB
      TEMPO 2209/2213 VRB10G20KT 2SM TSRA OVC007CB
     FM221400 27009KT P6SM VCSH OVC015
     FM221900 26017G25KT P6SM SKC=

USA.gov is the U.S. government's official web portal to all federal, state and local government web resources and services.